avis per tempestes more information blitzortung!


avis per Pluja more information rain snow radar


Visita la nostra xarxa de llocs de meteo:

Template documentation
and downloads

And another site



Thunderstorms From: 20-07-2018 17:00 Until: 21-07-2018 01:59 warning for: Thunderstorms Level: Yellow info button
Rain From: 20-07-2018 17:00 Until: 21-07-2018 01:59 warning for: Rain Level: Yellow info button

Pagina Historial Weather Underground text

Diari Resum February 12, 2016 Unitats:  Mètric    Imperial   Tant
« Previous Dia
SegĂźent Dia »
Diari Setmana Mensual Anual Personalitzada
  Maxima: Minima: Media:
Temperatura: -17.8 °C -11.3 °C -9.1 °C
Punt de rosada: -17.8 °C -14.6 °C -12.5 °C
Humitat: Humidity % 54 % 67 %
Wind Speed: 0 km/h 0 km/h 8 km/h
RĂ fegues de vent: 0 km/h - -
Vent:- - SW
Pression baro: 0 hPa 33958.2 hPa -
Precipitacions: 0 mm    
Historical Graphs
 
 
Dades de taula per February 12, 2016
Temps Temperatura Punt de rosada Pression baro Vent Wind Speed RĂ fegues de vent Humitat Rainfall Rate (Hourly)
-17.8 °C -17.8 °C 0 hPa Calm     Humidity % 0 mm
11:55 -11.3 °C -14.6 °C 34256.2 hPa WSW 2.6 km/h 10.3 km/h 80 % 0 mm
12:00 -10.7 °C -12.9 °C 34029.3 hPa WSW 5.1 km/h 5.1 km/h 77 % 0 mm
12:05 -10.6 °C -12.8 °C 34063.2 hPa NW 3.1 km/h 3.1 km/h 77 % 0 mm
12:10 -10.6 °C -12.8 °C 34063.2 hPa ENE 9 km/h 9 km/h 77 % 0 mm
12:15 -10.6 °C -12.8 °C 34063.2 hPa NE 6.3 km/h 6.3 km/h 77 % 0 mm
12:20 -10.6 °C -12.8 °C 34029.3 hPa NE 9 km/h 9 km/h 76 % 0 mm
12:25 -10.5 °C -12.8 °C 34029.3 hPa NE 5.1 km/h 7.7 km/h 76 % 0 mm
12:30 -10.3 °C -12.6 °C 34029.3 hPa NE 2.6 km/h 7.7 km/h 76 % 0 mm
12:35 -10.2 °C -12.6 °C 34029.3 hPa NE 7.6 km/h 7.6 km/h 76 % 0 mm
12:40 -10.1 °C -12.4 °C 34029.3 hPa NE 2.6 km/h 7.7 km/h 76 % 0 mm
12:45 -10 °C -12.3 °C 34029.3 hPa NE 8.5 km/h 8.5 km/h 76 % 0 mm
12:50 -9.9 °C -12.3 °C 33992.1 hPa SSW 17.9 km/h 17.9 km/h 75 % 0 mm
12:55 -9.4 °C -12.2 °C 33992.1 hPa WSW 11.9 km/h 11.9 km/h 72 % 0 mm
13:00 -9.2 °C -12.5 °C 33992.1 hPa West 7.7 km/h 20.8 km/h 68 % 0 mm
13:05 -9.1 °C -12.3 °C 33992.1 hPa SW 14 km/h 14 km/h 68 % 0 mm
13:10 -8.9 °C -12.4 °C 33992.1 hPa West 12.9 km/h 25.9 km/h 66 % 0 mm
13:15 -8.7 °C -12.6 °C 33992.1 hPa West 12.9 km/h 33.6 km/h 64 % 0 mm
13:25 -8.6 °C -12.6 °C 33992.1 hPa WSW 12.9 km/h 20.8 km/h 62 % 0 mm
13:30 -8.4 °C -12.5 °C 33992.1 hPa WSW 7.7 km/h 20.8 km/h 62 % 0 mm
13:35 -8.3 °C -12.7 °C 33992.1 hPa West 12.9 km/h 25.9 km/h 60 % 0 mm
13:40 -8.2 °C -12.7 °C 33992.1 hPa WSW 12.9 km/h 28.5 km/h 59 % 0 mm
13:45 -8.1 °C -12.7 °C 33992.1 hPa WSW 15.6 km/h 31.1 km/h 58 % 0 mm
13:50 -8.1 °C -12.8 °C 33992.1 hPa WSW 18.2 km/h 33.6 km/h 57 % 0 mm
13:55 -7.7 °C -12.3 °C 33992.1 hPa WSW 7.7 km/h 23.3 km/h 59 % 0 mm
14:00 -7.9 °C -12.7 °C 33992.1 hPa WSW 15.6 km/h 38.8 km/h 57 % 0 mm
14:05 -7.8 °C -12.6 °C 33981.9 hPa WSW 12.9 km/h 15.6 km/h 57 % 0 mm
14:15 -7.8 °C -12.7 °C 33958.2 hPa WSW 20.8 km/h 31.1 km/h 56 % 0 mm
14:20 -7.7 °C -12.8 °C 33958.2 hPa WSW 18.2 km/h 28.5 km/h 55 % 0 mm
14:25 -7.8 °C -12.9 °C 33958.2 hPa WSW 15.6 km/h 25.9 km/h 55 % 0 mm
14:30 -7.8 °C -12.9 °C 33958.2 hPa WSW 12.9 km/h 33.6 km/h 55 % 0 mm
14:35 -7.8 °C -12.7 °C 33958.2 hPa WSW 12.9 km/h 25.9 km/h 56 % 0 mm
14:40 -7.8 °C -13 °C 33992.1 hPa WSW 18.2 km/h 36.2 km/h 54 % 0 mm
14:45 -7.8 °C -12.9 °C 33992.1 hPa WSW 12.9 km/h 33.6 km/h 55 % 0 mm
14:50 -7.8 °C -12.9 °C 33981.9 hPa WSW 5.1 km/h 25.9 km/h 55 % 0 mm
14:55 -7.8 °C -12.9 °C 33958.2 hPa WSW 15.6 km/h 23.3 km/h 55 % 0 mm
15:00 -7.9 °C -13 °C 33958.2 hPa WSW 18.2 km/h 36.2 km/h 55 % 0 mm
15:05 -8 °C -13.1 °C 33971.7 hPa WSW 20.8 km/h 38.8 km/h 55 % 0 mm
15:10 -8.2 °C -13.1 °C 33992.1 hPa WSW 15.6 km/h 33.6 km/h 56 % 0 mm
15:15 -8.3 °C -13.1 °C 33992.1 hPa SW 17.9 km/h 17.9 km/h 57 % 0 mm
15:20 -8.3 °C -13.1 °C 33958.2 hPa West 15.6 km/h 15.6 km/h 57 % 0 mm
15:25 -8.4 °C -12.9 °C 33958.2 hPa SSW 9 km/h 9 km/h 59 % 0 mm
15:30 -8.5 °C -12.8 °C 33958.2 hPa SW 23.8 km/h 23.8 km/h 60 % 0 mm
15:35 -8.5 °C -12.8 °C 33958.2 hPa WSW 20.9 km/h 20.9 km/h 60 % 0 mm
15:40 -8.6 °C -12.9 °C 33958.2 hPa East 17.9 km/h 17.9 km/h 60 % 0 mm
15:45 -8.6 °C -12.7 °C 33958.2 hPa WSW 11.1 km/h 11.1 km/h 61 % 0 mm
15:50 -8.6 °C -12.8 °C 33992.1 hPa WSW 15 km/h 15 km/h 61 % 0 mm
16:00 -8.6 °C -12.8 °C 33992.1 hPa SSW 15 km/h 15 km/h 61 % 0 mm
16:05 -8.6 °C -12.7 °C 33958.2 hPa SW 20.9 km/h 20.9 km/h 62 % 0 mm
16:10 -8.6 °C -12.7 °C 33958.2 hPa West 9 km/h 9 km/h 62 % 0 mm
16:15 -8.6 °C -12.7 °C 33958.2 hPa SW 6 km/h 6 km/h 62 % 0 mm
16:20 -8.6 °C -12.7 °C 33992.1 hPa West 17.9 km/h 17.9 km/h 62 % 0 mm
16:25 -8.6 °C -12.5 °C 33992.1 hPa WSW 11.9 km/h 11.9 km/h 63 % 0 mm
16:30 -8.6 °C -12.5 °C 33992.1 hPa WSW 6.3 km/h 6.3 km/h 63 % 0 mm
16:35 -8.6 °C -12.5 °C 33958.2 hPa WSW 11.9 km/h 11.9 km/h 63 % 0 mm
16:40 -8.6 °C -12.6 °C 33958.2 hPa SW 9.3 km/h 9.3 km/h 63 % 0 mm
16:45 -8.6 °C -12.6 °C 33958.2 hPa NNE 5.1 km/h   63 % 0 mm
16:50 -8.6 °C -12.6 °C 33958.2 hPa WSW 6 km/h   63 % 0 mm
16:55 -8.6 °C -12.6 °C 33958.2 hPa Calm   5.1 km/h 63 % 0 mm
17:00 -8.6 °C -12.6 °C 33958.2 hPa WSW 2.6 km/h 7.7 km/h 63 % 0 mm
17:05 -8.6 °C -12.6 °C 33958.2 hPa Calm   5.1 km/h 63 % 0 mm
17:10 -8.7 °C -12.4 °C 33958.2 hPa WSW 5.1 km/h 7.7 km/h 64 % 0 mm
17:15 -8.7 °C -12.4 °C 33958.2 hPa WSW 12.9 km/h 15.6 km/h 64 % 0 mm
17:20 -8.7 °C -12.5 °C 33958.2 hPa WSW 7.7 km/h 15.6 km/h 64 % 0 mm
17:25 -8.7 °C -12.4 °C 33958.2 hPa WSW 15.6 km/h 23.3 km/h 65 % 0 mm
17:30 -8.8 °C -12.4 °C 33958.2 hPa WSW 12.9 km/h 18.2 km/h 65 % 0 mm
17:35 -8.8 °C -12.5 °C 33958.2 hPa WSW 5.1 km/h 12.9 km/h 65 % 0 mm
17:40 -8.8 °C -12.4 °C 33958.2 hPa WSW 7.7 km/h 15.6 km/h 66 % 0 mm
17:45 -8.9 °C -12.4 °C 33958.2 hPa WSW 7.7 km/h 15.6 km/h 66 % 0 mm
17:50 -8.9 °C -12.3 °C 33958.2 hPa WSW 7.7 km/h 18.2 km/h 67 % 0 mm
17:55 -8.9 °C -12.3 °C 33958.2 hPa WSW 5.1 km/h 12.9 km/h 67 % 0 mm
18:00 -9 °C -12.4 °C 33958.2 hPa WSW 5.1 km/h 12.9 km/h 67 % 0 mm
18:05 -9.1 °C -12.3 °C 33958.2 hPa WSW 5.1 km/h 12.9 km/h 68 % 0 mm
18:10 -9.1 °C -12.3 °C 33958.2 hPa West 5.1 km/h 15.6 km/h 68 % 0 mm
18:15 -9.1 °C -12.3 °C 33958.2 hPa WSW 5.1 km/h 10.3 km/h 68 % 0 mm
18:20 -9.1 °C -12.4 °C 33958.2 hPa WSW 2.6 km/h 5.1 km/h 68 % 0 mm
18:25 -9.1 °C -12.4 °C 33958.2 hPa Calm   7.7 km/h 68 % 0 mm
18:30 -9.1 °C -12.4 °C 33958.2 hPa WNW 5.1 km/h 10.3 km/h 68 % 0 mm
18:35 -9.1 °C -12.3 °C 33958.2 hPa West 5.1 km/h 12.9 km/h 69 % 0 mm
18:40 -9.1 °C -12.4 °C 33958.2 hPa West 2.6 km/h 12.9 km/h 68 % 0 mm
18:45 -9.1 °C -12.2 °C 33958.2 hPa West 7.7 km/h 15.6 km/h 69 % 0 mm
18:50 -9.1 °C -12.2 °C 33958.2 hPa WSW 12.9 km/h 15.6 km/h 69 % 0 mm
18:55 -9.1 °C -12.2 °C 33958.2 hPa WSW 2.6 km/h 12.9 km/h 69 % 0 mm
19:00 -9.1 °C -12.3 °C 33958.2 hPa Calm   7.7 km/h 69 % 0 mm
19:05 -9.1 °C -12.3 °C 33958.2 hPa West 2.6 km/h 5.1 km/h 69 % 0 mm
19:10 -9.2 °C -12.2 °C 33958.2 hPa North 2.6 km/h 7.7 km/h 70 % 0 mm
19:15 -9.3 °C -12.3 °C 33958.2 hPa NNE 5.1 km/h 7.7 km/h 70 % 0 mm
19:30 -9.3 °C -12.3 °C 33958.2 hPa SSE 2.6 km/h 7.7 km/h 70 % 0 mm
19:35 -9.3 °C -12.3 °C 33958.2 hPa WSW 5.1 km/h 7.7 km/h 70 % 0 mm
19:40 -9.3 °C -12.2 °C 33958.2 hPa WSW 5.1 km/h 15.6 km/h 71 % 0 mm
19:50 -9.2 °C -12.1 °C 33958.2 hPa WSW 2.6 km/h 10.3 km/h 71 % 0 mm
19:55 -9.2 °C -12.1 °C 33958.2 hPa Calm   5.1 km/h 71 % 0 mm
20:00 -9.3 °C -12.2 °C 33958.2 hPa Calm   7.7 km/h 71 % 0 mm
20:05 -9.3 °C -12.2 °C 33958.2 hPa Calm   7.7 km/h 71 % 0 mm
20:10 -9.3 °C -12.2 °C 33958.2 hPa SW 2.6 km/h 5.1 km/h 71 % 0 mm
20:15 -9.3 °C -12.2 °C 33958.2 hPa Calm   5.1 km/h 71 % 0 mm
20:20 -9.3 °C -12.2 °C 33958.2 hPa Calm   5.1 km/h 71 % 0 mm
20:25 -9.3 °C -12.2 °C 33958.2 hPa Calm     71 % 0 mm
20:30 -9.3 °C -12.2 °C 33958.2 hPa Calm   5.1 km/h 71 % 0 mm
20:35 -9.3 °C -12.2 °C 33958.2 hPa Calm   7.7 km/h 71 % 0 mm
20:40 -9.3 °C -12.2 °C 33958.2 hPa Calm   7.7 km/h 71 % 0 mm
20:45 -9.4 °C -12.2 °C 33958.2 hPa Calm   7.7 km/h 72 % 0 mm
20:50 -9.4 °C -12.2 °C 33958.2 hPa Calm   7.7 km/h 72 % 0 mm
20:55 -9.3 °C -12.2 °C 33958.2 hPa WSW 5.1 km/h 15.6 km/h 71 % 0 mm
21:00 -9.3 °C -12.2 °C 33958.2 hPa WSW 5.1 km/h 12.9 km/h 71 % 0 mm
21:05 -9.3 °C -12.2 °C 33958.2 hPa WSW 5.1 km/h 12.9 km/h 71 % 0 mm
21:10 -9.3 °C -12.2 °C 33958.2 hPa WSW 7.7 km/h 15.6 km/h 71 % 0 mm
21:15 -9.2 °C -12.1 °C 33958.2 hPa SW 7.7 km/h 15.6 km/h 71 % 0 mm
21:20 -9.2 °C -12.2 °C 33992.1 hPa SW 11.9 km/h 11.9 km/h 70 % 0 mm
21:25 -9.2 °C -12.2 °C 33992.1 hPa Calm   2.6 km/h 70 % 0 mm
21:30 -9.2 °C -12.1 °C 33992.1 hPa WSW 2.6 km/h 5.1 km/h 71 % 0 mm
21:35 -9.3 °C -12.2 °C 33992.1 hPa Calm   2.6 km/h 71 % 0 mm
21:40 -9.3 °C -12.2 °C 33992.1 hPa NW 2.6 km/h 2.6 km/h 71 % 0 mm
21:45 -9.3 °C -12.2 °C 33992.1 hPa NW 2.6 km/h 5.1 km/h 71 % 0 mm
21:50 -9.3 °C -12.2 °C 33992.1 hPa NW 5.1 km/h 7.7 km/h 71 % 0 mm
21:55 -9.3 °C -12.2 °C 33992.1 hPa Calm   12.9 km/h 71 % 0 mm
22:00 -9.2 °C -12.3 °C 33992.1 hPa WSW 11.9 km/h 11.9 km/h 70 % 0 mm
22:05 -9.3 °C -12.3 °C 33992.1 hPa WSW 6 km/h 6 km/h 70 % 0 mm
22:15 -9.3 °C -12.3 °C 33992.1 hPa NW 3.1 km/h 3.1 km/h 70 % 0 mm
22:20 -9.3 °C -12.3 °C 33992.1 hPa West 6.3 km/h 6.3 km/h 70 % 0 mm
22:25 -9.3 °C -12.2 °C 33992.1 hPa West 9 km/h 9 km/h 71 % 0 mm
22:30 -9.3 °C -12.2 °C 33992.1 hPa WSW 11.9 km/h 11.9 km/h 71 % 0 mm
22:35 -9.4 °C -12.3 °C 33992.1 hPa West 9 km/h 9 km/h 71 % 0 mm
22:40 -9.4 °C -12.3 °C 33992.1 hPa WNW 11.9 km/h 11.9 km/h 71 % 0 mm
22:45 -9.4 °C -12.2 °C 33992.1 hPa WSW 11.9 km/h 11.9 km/h 72 % 0 mm
22:50 -9.3 °C -12.1 °C 33992.1 hPa WSW 7.7 km/h 12.9 km/h 72 % 0 mm
22:55 -9.3 °C -12.1 °C 33992.1 hPa WSW 7.7 km/h 15.6 km/h 72 % 0 mm
23:00 -9.3 °C -12.1 °C 33992.1 hPa West 9 km/h 9 km/h 72 % 0 mm
23:05 -9.3 °C -12.1 °C 33958.2 hPa West 9 km/h 9 km/h 72 % 0 mm
23:15 -9.3 °C -12.1 °C 33958.2 hPa SW 6.3 km/h 6.3 km/h 72 % 0 mm
23:20 -9.4 °C -12.2 °C 33958.2 hPa WSW 6.8 km/h 6.8 km/h 72 % 0 mm
23:25 -9.4 °C -12.2 °C 33958.2 hPa WSW 6.3 km/h 6.3 km/h 72 % 0 mm
23:30 -9.4 °C -12.2 °C 33958.2 hPa SW 6 km/h 6 km/h 72 % 0 mm
23:40 -9.4 °C -12.1 °C 33958.2 hPa WSW 9 km/h 9 km/h 73 % 0 mm
23:45 -9.4 °C -12.1 °C 33958.2 hPa West 6 km/h 6 km/h 73 % 0 mm
23:50 -9.5 °C -12.2 °C 33992.1 hPa West 6.3 km/h 6.3 km/h 73 % 0 mm
23:55 -9.5 °C -12.2 °C 33992.1 hPa WNW 6 km/h 6 km/h 73 % 0 mm
Meteo Sesrovires
Elogis d' Weather Underground - 2 mb

Guio original per  Jim McMurry - jmcmurry@mwt.net Adaptat per a la plantilla per  Wim van der Kuil - Leuven-Template.eu

Trobareu la nostra informacio del temps tambe a:

Weather Underground

AWEKAS